Flight Briefing for CPX312

Departure Arrival
Seattle-Tacoma International Airport (KSEA)
Click to view FAA NOTAMS
Washington Dulles International Airport (KIAD)
Click to view FAA NOTAMS
Departure Time Arrival Time
N/A N/A
Aircraft Distance
B767-300BDSF 20001nm
Departure METAR Arrival METAR
KSEA 260953Z 19009KT 10SM -RA FEW010 BKN030 OVC038 07/04 A3004 RMK AO2 SLP178 P0002 T00670044 KIAD 260952Z 01011G18KT 10SM SCT065 BKN080 03/M06 A3017 RMK AO2 SLP217 T00331056 $
Suggested Route
SEA NORMY J90 MWH HLN DPR MCW DBQ JOT J30 APE AIR J162 MGW GIBBZ2


View recent IFR Routes data
Notes



Charts and Procedures

Charts for KSEA
No chart available
Charts for KIAD
No chart available

Windy.com Weather Map